Time;durP1;ratioP1;P1;durP2;ratioP2;P2;SDS_P1;SDS_P2;PMS_P1;PMS_P2;Temp;Humidity;BMP_temperature;BMP_pressure;BME280_temperature;BME280_humidity;BME280_pressure;Samples;Min_cycle;Max_cycle;Signal;HPM_P1;HPM_P2
2022/03/23 00:02:07;;;;;;;;;;;;;;;11.38;82.44;100291.59;5023004;28;19921;-59
2022/03/23 00:04:32;;;;;;;;;;;;;;;11.46;85.83;100288.91;5021775;28;20228;-60
2022/03/23 00:06:59;;;;;;;;;;;;;;;11.63;84.01;100279.19;5021916;28;19960;-61
2022/03/23 00:09:26;;;;;;;;;;;;;;;11.26;84.46;100290.03;5021814;28;19925;-60
2022/03/23 00:11:51;;;;;;;;;;;;;;;11.19;85.09;100291.00;5021476;28;19917;-59
2022/03/23 00:14:17;;;;;;;;;;;;;;;11.31;86.26;100287.38;5022258;28;19921;-60
2022/03/23 00:16:42;;;;;;;;;;;;;;;11.28;85.54;100290.03;5021058;28;20355;-60
2022/03/23 00:19:07;;;;;;;;;;;;;;;11.16;85.85;100285.88;5022872;28;19929;-59
2022/03/23 00:21:33;;;;;;;;;;;;;;;11.48;87.08;100277.69;5025123;28;20283;-59
2022/03/23 00:23:58;;;;;;;;;;;;;;;11.66;84.16;100276.53;5023929;28;19916;-60
2022/03/23 00:26:24;;;;;;;;;;;;;;;11.09;83.61;100279.13;5024972;28;20406;-59
2022/03/23 00:28:49;;;;;;;;;;;;;;;11.28;86.00;100280.56;5025393;28;19995;-60
2022/03/23 00:31:15;;;;;;;;;;;;;;;11.57;85.90;100271.53;5026293;28;19917;-59
2022/03/23 00:33:40;;;;;;;;;;;;;;;11.21;83.76;100283.25;5027954;28;20178;-60
2022/03/23 00:36:06;;;;;;;;;;;;;;;11.33;85.87;100279.63;5031387;28;19921;-59
2022/03/23 00:38:32;;;;;;;;;;;;;;;11.44;86.40;100280.34;5032960;28;20387;-59
2022/03/23 00:40:57;;;;;;;;;;;;;;;11.37;83.27;100283.88;5030811;28;19928;-60
2022/03/23 00:43:22;;;;;;;;;;;;;;;11.14;86.07;100281.63;5031054;28;19921;-60
2022/03/23 00:45:48;;;;;;;;;;;;;;;11.42;84.40;100276.91;5031431;28;19921;-60
2022/03/23 00:48:13;;;;;;;;;;;;;;;11.41;83.50;100270.91;5031043;28;19956;-60
2022/03/23 00:50:38;;;;;;;;;;;;;;;11.18;83.65;100278.16;5029349;28;20524;-60
2022/03/23 00:53:04;;;;;;;;;;;;;;;11.46;84.22;100276.84;5030116;28;20043;-60
2022/03/23 00:55:30;;;;;;;;;;;;;;;11.34;83.03;100271.03;5030241;28;20447;-61
2022/03/23 00:57:55;;;;;;;;;;;;;;;11.32;83.71;100276.22;5030049;28;20468;-61
2022/03/23 01:00:22;;;;;;;;;;;;;;;11.39;83.00;100269.25;5030546;28;19921;-60
2022/03/23 01:02:48;;;;;;;;;;;;;;;11.08;83.46;100267.09;5032868;28;20389;-61
2022/03/23 01:05:13;;;;;;;;;;;;;;;11.79;81.69;100258.28;5032061;28;19925;-59
2022/03/23 01:07:39;;;;;;;;;;;;;;;11.30;80.91;100271.06;5031777;28;20509;-59
2022/03/23 01:10:05;;;;;;;;;;;;;;;11.55;81.11;100262.97;5030228;28;19920;-61
2022/03/23 01:12:30;;;;;;;;;;;;;;;12.06;76.33;100260.41;5030140;28;19971;-61
2022/03/23 01:14:55;;;;;;;;;;;;;;;11.02;82.09;100265.47;5025624;28;19992;-58
2022/03/23 01:17:21;;;;;;;;;;;;;;;11.77;80.11;100257.44;5028324;28;19931;-59
2022/03/23 01:19:46;;;;;;;;;;;;;;;11.84;78.55;100261.66;5030699;28;20493;-60
2022/03/23 01:22:11;;;;;;;;;;;;;;;11.47;82.33;100265.69;5031660;28;20390;-59
2022/03/23 01:24:37;;;;;;;;;;;;;;;11.46;80.91;100260.53;5030571;28;20570;-61
2022/03/23 01:27:03;;;;;;;;;;;;;;;10.51;79.62;100264.38;5030294;28;19925;-61
2022/03/23 01:29:28;;;;;;;;;;;;;;;11.22;83.71;100259.16;5029015;28;19920;-60
2022/03/23 01:31:54;;;;;;;;;;;;;;;11.05;77.11;100257.66;5027361;28;19928;-58
2022/03/23 01:34:19;;;;;;;;;;;;;;;11.16;80.26;100267.00;5030114;28;19936;-61
2022/03/23 01:36:44;;;;;;;;;;;;;;;11.84;75.97;100256.50;5029540;28;19921;-59
2022/03/23 01:39:10;;;;;;;;;;;;;;;12.19;70.75;100244.72;5031242;28;20310;-60
2022/03/23 01:41:35;;;;;;;;;;;;;;;12.16;70.01;100247.31;5010740;28;19917;-60
2022/03/23 01:44:01;;;;;;;;;;;;;;;12.03;72.65;100250.13;5029364;28;19924;-60
2022/03/23 01:46:26;;;;;;;;;;;;;;;11.88;73.94;100250.41;5030912;28;19943;-60
2022/03/23 01:48:51;;;;;;;;;;;;;;;11.79;74.90;100248.81;5029221;28;20475;-60
2022/03/23 01:51:17;;;;;;;;;;;;;;;11.98;71.79;100243.38;5027745;28;19921;-61
2022/03/23 01:53:42;;;;;;;;;;;;;;;11.89;74.47;100247.81;5028325;28;20449;-60
2022/03/23 01:56:09;;;;;;;;;;;;;;;11.65;75.69;100243.88;5028531;28;19944;-59
2022/03/23 01:58:36;;;;;;;;;;;;;;;11.97;74.32;100241.66;5030222;28;19917;-60
2022/03/23 02:01:01;;;;;;;;;;;;;;;11.83;72.96;100241.84;5031511;28;20141;-59
2022/03/23 02:03:26;;;;;;;;;;;;;;;11.69;77.27;100248.09;5029852;28;20314;-60
2022/03/23 02:05:51;;;;;;;;;;;;;;;11.93;74.86;100238.28;5021568;28;19921;-60
2022/03/23 02:08:17;;;;;;;;;;;;;;;11.43;76.43;100247.69;5032511;28;20352;-59
2022/03/23 02:10:42;;;;;;;;;;;;;;;11.78;75.27;100238.50;5020393;28;19921;-60
2022/03/23 02:13:09;;;;;;;;;;;;;;;11.28;77.79;100249.59;5031107;28;20346;-61
2022/03/23 02:15:35;;;;;;;;;;;;;;;11.66;75.56;100243.00;5028589;28;19992;-60
2022/03/23 02:18:00;;;;;;;;;;;;;;;11.78;72.76;100230.78;5032464;28;19925;-60
2022/03/23 02:20:25;;;;;;;;;;;;;;;11.76;73.01;100240.28;5028835;28;19928;-60
2022/03/23 02:22:51;;;;;;;;;;;;;;;11.74;72.91;100242.88;5029457;28;19921;-61
2022/03/23 02:25:21;;;;;;;;;;;;;;;11.75;74.26;100243.75;5031036;28;20513;-60
2022/03/23 02:27:47;;;;;;;;;;;;;;;11.86;74.06;100236.63;5030626;28;20003;-60
2022/03/23 02:30:12;;;;;;;;;;;;;;;11.68;75.02;100238.66;5030288;28;20438;-59
2022/03/23 02:32:38;;;;;;;;;;;;;;;11.19;75.28;100244.59;5029919;28;19917;-61
2022/03/23 02:35:03;;;;;;;;;;;;;;;11.43;74.54;100240.78;5027432;28;20015;-60
2022/03/23 02:37:29;;;;;;;;;;;;;;;11.60;75.92;100245.69;5028018;28;19971;-57
2022/03/23 02:39:54;;;;;;;;;;;;;;;11.28;74.61;100244.44;5030749;28;19956;-60
2022/03/23 02:42:19;;;;;;;;;;;;;;;10.68;74.86;100247.00;5027980;28;20396;-60
2022/03/23 02:44:45;;;;;;;;;;;;;;;10.55;75.70;100253.16;5027461;28;19928;-59
2022/03/23 02:47:10;;;;;;;;;;;;;;;10.55;74.00;100245.44;5027849;28;20330;-60
2022/03/23 02:49:36;;;;;;;;;;;;;;;10.85;78.02;100245.03;5026476;28;20117;-60
2022/03/23 02:52:01;;;;;;;;;;;;;;;11.32;73.05;100234.94;5028649;28;20321;-60
2022/03/23 03:02:59;;;;;;;;;;;;;;;10.22;79.02;100252.66;5032132;28;19928;-61
2022/03/23 03:05:24;;;;;;;;;;;;;;;10.19;84.05;100258.66;5032964;28;20301;-59
2022/03/23 03:10:34;;;;;;;;;;;;;;;9.71;92.90;100259.97;5031786;28;19963;-60
2022/03/23 03:12:59;;;;;;;;;;;;;;;9.51;95.84;100266.16;5032656;28;20370;-60
2022/03/23 03:15:25;;;;;;;;;;;;;;;9.17;94.36;100266.38;5035032;28;20180;-58
2022/03/23 03:17:50;;;;;;;;;;;;;;;9.11;97.06;100268.97;5029811;28;20082;-60
2022/03/23 03:20:16;;;;;;;;;;;;;;;9.14;99.57;100261.22;5033146;28;19929;-58
2022/03/23 03:22:41;;;;;;;;;;;;;;;8.95;98.35;100265.63;5033926;28;20008;-60
2022/03/23 03:25:07;;;;;;;;;;;;;;;9.10;100.00;100267.25;5030889;28;20010;-60
2022/03/23 03:27:35;;;;;;;;;;;;;;;8.96;98.97;100263.91;5033117;28;20341;-61
2022/03/23 03:30:00;;;;;;;;;;;;;;;9.01;99.33;100262.19;5022376;28;20814;-60
2022/03/23 03:32:26;;;;;;;;;;;;;;;8.95;98.30;100267.34;5029972;28;20349;-61
2022/03/23 03:34:51;;;;;;;;;;;;;;;8.78;98.54;100265.72;5030112;28;20019;-61
2022/03/23 03:37:16;;;;;;;;;;;;;;;8.70;99.57;100264.03;5033683;28;20377;-60
2022/03/23 03:39:41;;;;;;;;;;;;;;;8.83;97.31;100262.28;5033040;28;19917;-60
2022/03/23 03:42:07;;;;;;;;;;;;;;;8.90;95.99;100263.94;5031914;28;19981;-59
2022/03/23 03:44:32;;;;;;;;;;;;;;;8.80;96.83;100260.53;5033144;28;20302;-59
2022/03/23 03:46:57;;;;;;;;;;;;;;;8.87;95.58;100262.25;5029836;28;20016;-60
2022/03/23 03:49:23;;;;;;;;;;;;;;;8.55;95.43;100268.38;5010679;28;19921;-60
2022/03/23 03:51:48;;;;;;;;;;;;;;;8.86;95.01;100275.09;5032148;28;19925;-60
2022/03/23 03:54:13;;;;;;;;;;;;;;;8.99;93.26;100269.03;5029406;28;20299;-59
2022/03/23 03:56:39;;;;;;;;;;;;;;;9.05;92.11;100263.84;5033257;28;19928;-60
2022/03/23 03:59:04;;;;;;;;;;;;;;;9.07;90.85;100267.25;5032167;28;20399;-58
2022/03/23 04:01:29;;;;;;;;;;;;;;;9.18;91.62;100275.75;5014860;28;19925;-59
2022/03/23 04:03:54;;;;;;;;;;;;;;;8.97;94.85;100275.91;5032824;28;20425;-61
2022/03/23 04:06:20;;;;;;;;;;;;;;;8.74;96.33;100281.97;5030620;28;19978;-60
2022/03/23 04:08:45;;;;;;;;;;;;;;;8.59;96.94;100279.47;5014227;28;19921;-60
2022/03/23 04:11:11;;;;;;;;;;;;;;;8.41;98.13;100284.66;5034053;28;19921;-60
2022/03/23 04:13:36;;;;;;;;;;;;;;;8.29;100.00;100283.78;5032975;28;19917;-60
2022/03/23 04:16:02;;;;;;;;;;;;;;;8.25;100.00;100289.78;5033292;28;19920;-60
2022/03/23 04:18:28;;;;;;;;;;;;;;;8.48;99.64;100281.22;4996235;28;20381;-60
2022/03/23 04:20:53;;;;;;;;;;;;;;;8.31;99.09;100291.50;5032627;28;19928;-60
2022/03/23 04:23:18;;;;;;;;;;;;;;;8.43;98.77;100288.06;5032735;28;20387;-58
2022/03/23 04:25:44;;;;;;;;;;;;;;;8.20;99.79;100291.50;5032015;28;19924;-60
2022/03/23 04:28:09;;;;;;;;;;;;;;;8.05;100.00;100294.09;5034285;28;19929;-60
2022/03/23 04:30:34;;;;;;;;;;;;;;;8.02;99.88;100291.53;5034197;28;19940;-60
2022/03/23 04:33:00;;;;;;;;;;;;;;;7.89;100.00;100299.25;5033061;28;19956;-59
2022/03/23 04:35:26;;;;;;;;;;;;;;;7.84;100.00;100298.38;5032031;28;19921;-58
2022/03/23 04:37:51;;;;;;;;;;;;;;;7.61;100.00;100289.81;5033803;28;19921;-59
2022/03/23 04:40:17;;;;;;;;;;;;;;;7.63;100.00;100299.22;5033782;28;19928;-61
2022/03/23 04:42:43;;;;;;;;;;;;;;;7.53;100.00;100305.22;5032848;28;19982;-60
2022/03/23 04:45:08;;;;;;;;;;;;;;;7.56;100.00;100296.66;5036282;28;20102;-60
2022/03/23 04:47:34;;;;;;;;;;;;;;;7.61;100.00;100300.06;5032945;28;19928;-59
2022/03/23 04:49:59;;;;;;;;;;;;;;;7.28;100.00;100297.47;5034900;28;19991;-59
2022/03/23 04:52:25;;;;;;;;;;;;;;;7.23;100.00;100304.31;5032121;28;20067;-61
2022/03/23 04:54:50;;;;;;;;;;;;;;;7.03;100.00;100311.06;5035000;28;20011;-61
2022/03/23 04:57:16;;;;;;;;;;;;;;;7.07;100.00;100310.19;5028768;28;20028;-62
2022/03/23 04:59:42;;;;;;;;;;;;;;;6.87;100.00;100316.13;5033151;28;19920;-60
2022/03/23 05:02:07;;;;;;;;;;;;;;;6.51;100.00;100311.69;5032809;28;19928;-60
2022/03/23 05:04:32;;;;;;;;;;;;;;;6.69;100.00;100311.78;5034357;28;20027;-62
2022/03/23 05:06:58;;;;;;;;;;;;;;;6.77;100.00;100309.22;5031970;28;20298;-61
2022/03/23 05:09:23;;;;;;;;;;;;;;;6.48;100.00;100311.66;5029660;28;19928;-61
2022/03/23 05:11:48;;;;;;;;;;;;;;;6.49;100.00;100321.03;5032227;28;20008;-61
2022/03/23 05:14:14;;;;;;;;;;;;;;;6.58;100.00;100315.13;5015399;28;19928;-62
2022/03/23 05:16:39;;;;;;;;;;;;;;;6.27;100.00;100320.03;5030707;28;19952;-61
2022/03/23 05:19:05;;;;;;;;;;;;;;;6.19;100.00;100322.56;5033881;28;20432;-61
2022/03/23 05:21:30;;;;;;;;;;;;;;;6.49;100.00;100316.78;5013567;28;20241;-59
2022/03/23 05:23:55;;;;;;;;;;;;;;;6.34;100.00;100319.25;5029606;28;19921;-60
2022/03/23 05:26:21;;;;;;;;;;;;;;;6.24;100.00;100322.59;5031915;28;19941;-60
2022/03/23 05:28:46;;;;;;;;;;;;;;;6.13;100.00;100322.50;5015572;28;19960;-61
2022/03/23 05:31:11;;;;;;;;;;;;;;;6.17;100.00;100321.69;5031874;28;19917;-60
2022/03/23 05:33:37;;;;;;;;;;;;;;;6.32;100.00;100315.84;5032634;28;19925;-61
2022/03/23 05:51:58;;;;;;;;;;;;;;;6.64;100.00;100323.69;4959944;28;20498;-61
2022/03/23 05:57:37;;;;;;;;;;;;;;;6.65;100.00;100320.28;4959168;28;20572;-61
2022/03/23 06:00:03;;;;;;;;;;;;;;;6.76;100.00;100328.03;4941506;28;19920;-60
2022/03/23 06:02:28;;;;;;;;;;;;;;;6.97;100.00;100326.41;4961712;28;20037;-62
2022/03/23 06:04:54;;;;;;;;;;;;;;;6.91;100.00;100329.78;4962708;28;20009;-60
2022/03/23 06:07:20;;;;;;;;;;;;;;;7.01;100.00;100335.81;4961189;28;19935;-58
2022/03/23 06:09:45;;;;;;;;;;;;;;;7.02;100.00;100334.94;4961662;28;20440;-62
2022/03/23 06:12:25;;;;;;;;;;;;;;;7.02;100.00;100324.72;4962966;28;19962;-62
2022/03/23 06:42:27;;;;;;;;;;;;;;;8.22;100.00;100330.84;5032894;28;19913;-61
2022/03/23 07:12:56;;;;;;;;;;;;;;;10.42;87.88;100327.13;5027498;28;20293;-61
2022/03/23 07:21:59;;;;;;;;;;;;;;;10.67;86.99;100332.88;5025772;28;20318;-61
2022/03/23 08:03:25;;;;;;;;;;;;;;;13.32;77.92;100351.03;5026359;28;20409;-61
2022/03/23 08:05:52;;;;;;;;;;;;;;;13.51;74.35;100342.84;5024715;28;19969;-63
2022/03/23 08:12:09;;;;;;;;;;;;;;;;;;;;;
2022/03/23 08:52:00;;;;;;;;;;;;;;;17.44;55.82;100349.09;4944533;29;19926;-63
2022/03/23 08:54:25;;;;;;;;;;;;;;;17.41;53.97;100346.63;4948723;29;19945;-62
2022/03/23 08:56:51;;;;;;;;;;;;;;;17.71;54.49;100341.13;4943391;29;19918;-62
2022/03/23 08:59:16;;;;;;;;;;;;;;;17.60;49.23;100343.28;4926674;29;19958;-63
2022/03/23 09:01:48;;;;;;;;;;;;;;;18.01;51.28;100340.81;4944377;29;19918;-62
2022/03/23 09:04:14;;;;;;;;;;;;;;;18.05;49.87;100340.63;4944527;29;19926;-63
2022/03/23 09:06:39;;;;;;;;;;;;;;;18.40;52.33;100343.50;4942386;29;19937;-63
2022/03/23 09:09:05;;;;;;;;;;;;;;;18.61;49.51;100339.13;4942904;29;19949;-63
2022/03/23 09:11:30;;;;;;;;;;;;;;;18.98;45.58;100337.50;4943409;29;20289;-62
2022/03/23 09:13:57;;;;;;;;;;;;;;;19.10;45.54;100341.31;4943759;29;19922;-63
2022/03/23 09:16:22;;;;;;;;;;;;;;;18.99;44.12;100337.44;4943380;29;19918;-62
2022/03/23 09:18:48;;;;;;;;;;;;;;;19.23;45.52;100338.06;4944536;29;19956;-63
2022/03/23 09:21:14;;;;;;;;;;;;;;;19.01;42.96;100335.59;4959597;28;20393;-62
2022/03/23 09:23:40;;;;;;;;;;;;;;;19.62;41.90;100339.72;5029205;28;19964;-62
2022/03/23 09:26:09;;;;;;;;;;;;;;;19.86;41.38;100329.03;5029241;28;19932;-61
2022/03/23 09:28:34;;;;;;;;;;;;;;;19.73;40.04;100328.78;5031712;28;19921;-62
2022/03/23 09:30:59;;;;;;;;;;;;;;;20.20;40.37;100336.03;5015443;28;19928;-61
2022/03/23 09:33:25;;;;;;;;;;;;;;;20.73;40.16;100328.13;5027823;28;20392;-62
2022/03/23 09:37:47;;;;;;;;;;;;;;;20.77;38.53;100325.25;5030084;28;19917;-62
2022/03/23 09:39:08;;;;;;;;;;;;;;;20.24;35.75;100323.66;5027070;28;19971;-62
2022/03/23 09:41:34;;;;;;;;;;;;;;;20.61;37.82;100327.00;5028005;28;19913;-62
2022/03/23 09:44:00;;;;;;;;;;;;;;;20.40;35.00;100321.09;5021154;28;19933;-62
2022/03/23 09:46:25;;;;;;;;;;;;;;;21.24;35.51;100319.25;5014269;28;20151;-63
2022/03/23 09:48:51;;;;;;;;;;;;;;;19.64;36.80;100332.66;5031338;28;19966;-60
2022/03/23 09:51:16;;;;;;;;;;;;;;;20.98;36.31;100319.81;5034650;28;19974;-62
2022/03/23 09:53:42;;;;;;;;;;;;;;;19.89;33.84;100314.94;5028726;28;19940;-61
2022/03/23 09:56:07;;;;;;;;;;;;;;;18.99;35.55;100328.75;5024240;28;19917;-62
2022/03/23 09:58:32;;;;;;;;;;;;;;;19.43;35.08;100323.22;5028281;28;19914;-62
2022/03/23 10:00:58;;;;;;;;;;;;;;;19.71;34.42;100314.94;5012619;28;19917;-62
2022/03/23 10:03:26;;;;;;;;;;;;;;;19.14;34.62;100320.22;5026940;28;20264;-61
2022/03/23 10:06:00;;;;;;;;;;;;;;;19.68;32.60;100316.81;5028418;28;19968;-61
2022/03/23 10:08:46;;;;;;;;;;;;;;;20.82;33.60;100312.81;5027872;28;20213;-62
2022/03/23 10:11:33;;;;;;;;;;;;;;;19.84;37.82;100323.00;5027162;28;19928;-61
2022/03/23 10:14:17;;;;;;;;;;;;;;;18.65;45.26;100330.22;5026755;28;20333;-62
2022/03/23 10:17:04;;;;;;;;;;;;;;;18.97;45.48;100331.44;5030938;28;20351;-62
2022/03/23 10:19:29;;;;;;;;;;;;;;;19.08;53.02;100337.94;5030395;28;19924;-62
2022/03/23 10:22:15;;;;;;;;;;;;;;;18.39;56.22;100334.00;5027356;28;20381;-61
2022/03/23 10:24:40;;;;;;;;;;;;;;;18.65;58.12;100332.00;5029387;28;20257;-62
2022/03/23 10:27:07;;;;;;;;;;;;;;;18.96;56.65;100328.91;5030844;28;20409;-62
2022/03/23 10:29:32;;;;;;;;;;;;;;;19.21;56.60;100326.00;5031086;28;19927;-62
2022/03/23 10:31:58;;;;;;;;;;;;;;;19.56;51.04;100319.09;5010906;28;19925;-62
2022/03/23 10:34:23;;;;;;;;;;;;;;;18.93;49.45;100321.19;5029359;28;19975;-62
2022/03/23 10:36:54;;;;;;;;;;;;;;;18.87;51.47;100327.56;5028687;28;19927;-62
2022/03/23 10:39:22;;;;;;;;;;;;;;;19.68;46.35;100319.44;5025708;28;20023;-61
2022/03/23 10:42:00;;;;;;;;;;;;;;;21.06;46.38;100317.63;5029322;28;20375;-60
2022/03/23 10:44:26;;;;;;;;;;;;;;;19.09;49.88;100323.94;5040571;28;19929;-62
2022/03/23 10:46:51;;;;;;;;;;;;;;;19.36;48.83;100321.81;5025941;28;19986;-62
2022/03/23 10:49:16;;;;;;;;;;;;;;;18.56;46.00;100320.19;5042746;28;20098;-62
2022/03/23 10:51:42;;;;;;;;;;;;;;;19.61;46.79;100317.13;5043974;28;19948;-62
2022/03/23 10:54:18;;;;;;;;;;;;;;;19.16;44.77;100321.00;5047016;28;19921;-62
2022/03/23 10:56:43;;;;;;;;;;;;;;;18.86;42.09;100318.03;5045690;28;20053;-62
2022/03/23 11:02:11;;;;;;;;;;;;;;;19.47;44.17;100314.31;5041400;28;19990;-62
2022/03/23 11:04:42;;;;;;;;;;;;;;;19.25;46.81;100319.72;5045928;28;19980;-62
2022/03/23 11:07:09;;;;;;;;;;;;;;;19.67;42.37;100307.31;5046510;28;19920;-62
2022/03/23 11:18:46;;;;;;;;;;;;;;;21.50;42.78;100303.84;5000963;28;19956;-62
2022/03/23 11:21:19;;;;;;;;;;;;;;;21.20;40.62;100299.38;4928904;28;19999;-61
2022/03/23 11:24:09;;;;;;;;;;;;;;;;;;;;;
2022/03/23 11:26:35;;;;;;;;;;;;;;;21.31;43.76;100298.78;5002285;28;19922;-62
2022/03/23 11:29:02;;;;;;;;;;;;;;;20.31;46.13;100306.72;5004443;28;19920;-62
2022/03/23 11:31:27;;;;;;;;;;;;;;;21.16;38.97;100287.38;5004361;28;19921;-62
2022/03/23 11:33:53;;;;;;;;;;;;;;;19.85;46.57;100304.66;5004207;28;19917;-62
2022/03/23 11:39:21;;;;;;;;;;;;;;;21.58;42.54;100291.16;5001883;28;19956;-59
2022/03/23 11:41:47;;;;;;;;;;;;;;;20.65;42.69;100289.28;5003799;28;20411;-62
2022/03/23 11:44:16;;;;;;;;;;;;;;;19.55;41.13;100288.69;4974109;28;19922;-62
2022/03/23 11:46:42;;;;;;;;;;;;;;;21.82;41.88;100283.66;4982273;28;19926;-61
2022/03/23 11:49:13;;;;;;;;;;;;;;;23.09;38.46;100280.38;4990708;28;19924;-60
2022/03/23 11:51:50;;;;;;;;;;;;;;;22.03;34.08;100281.56;4992446;28;20431;-60
2022/03/23 11:54:16;;;;;;;;;;;;;;;23.35;38.40;100283.09;5018761;28;19956;-61
2022/03/23 11:56:41;;;;;;;;;;;;;;;23.35;37.51;100280.47;5030561;28;19975;-61
2022/03/23 11:59:19;;;;;;;;;;;;;;;21.35;37.39;100281.97;5030994;28;20024;-61
2022/03/23 12:01:45;;;;;;;;;;;;;;;22.30;37.18;100273.00;5021398;28;20004;-61
2022/03/23 12:04:12;;;;;;;;;;;;;;;22.91;33.74;100266.59;5027442;28;20079;-60
2022/03/23 12:06:42;;;;;;;;;;;;;;;23.20;38.24;100270.97;5028959;28;19924;-61
2022/03/23 12:09:07;;;;;;;;;;;;;;;22.94;35.71;100262.91;5030050;28;19929;-60
2022/03/23 12:12:00;;;;;;;;;;;;;;;22.90;34.55;100251.78;5023225;28;20567;-61
2022/03/23 12:14:31;;;;;;;;;;;;;;;23.42;34.87;100252.00;5022308;28;19925;-61
2022/03/23 12:20:00;;;;;;;;;;;;;;;22.22;34.25;100244.59;5034033;28;19971;-60
2022/03/23 12:22:32;;;;;;;;;;;;;;;20.62;35.04;100247.56;5032908;28;19972;-61
2022/03/23 12:25:03;;;;;;;;;;;;;;;22.38;31.95;100234.03;5033910;28;20375;-60
2022/03/23 12:27:47;;;;;;;;;;;;;;;23.39;32.60;100232.84;5033525;28;19962;-60
2022/03/23 12:30:14;;;;;;;;;;;;;;;22.43;33.68;100237.19;5034776;28;19925;-59
2022/03/23 12:32:39;;;;;;;;;;;;;;;23.12;31.76;100230.25;5032641;28;19993;-60
2022/03/23 12:41:36;;;;;;;;;;;;;;;23.10;30.90;100231.28;5031155;28;20525;-61
2022/03/23 12:47:05;;;;;;;;;;;;;;;22.91;33.75;100226.34;5029904;28;19940;-61
2022/03/23 13:02:04;;;;;;;;;;;;;;;23.97;31.74;100209.75;4948819;28;19980;-61
2022/03/23 13:04:44;;;;;;;;;;;;;;;22.89;30.80;100218.56;4949531;28;19954;-61
2022/03/23 13:07:28;;;;;;;;;;;;;;;24.34;29.56;100203.72;4947923;28;19984;-59
2022/03/23 13:10:08;;;;;;;;;;;;;;;25.04;31.08;100197.81;4948540;28;19922;-60
2022/03/23 13:12:34;;;;;;;;;;;;;;;23.97;31.21;100203.63;4949497;28;20341;-61
2022/03/23 13:14:59;;;;;;;;;;;;;;;23.10;33.04;100208.47;4946545;28;19929;-61
2022/03/23 13:17:25;;;;;;;;;;;;;;;24.75;31.00;100192.91;4946153;28;20004;-60
2022/03/23 13:23:10;;;;;;;;;;;;;;;23.64;31.72;100194.41;4946999;28;20013;-60
2022/03/23 13:25:54;;;;;;;;;;;;;;;24.94;31.00;100192.38;4950254;28;19932;-60
2022/03/23 13:28:22;;;;;;;;;;;;;;;24.99;27.85;100178.88;4992263;28;19929;-61
2022/03/23 13:30:50;;;;;;;;;;;;;;;23.00;30.67;100190.78;5010801;28;19920;-61
2022/03/23 13:33:15;;;;;;;;;;;;;;;23.73;31.14;100179.81;5011003;28;20307;-59
2022/03/23 13:35:42;;;;;;;;;;;;;;;23.37;28.99;100182.16;5011013;28;19917;-59
2022/03/23 13:38:08;;;;;;;;;;;;;;;24.02;32.98;100193.63;5028697;28;19928;-60
2022/03/23 13:43:20;;;;;;;;;;;;;;;25.09;29.56;100179.03;4990028;28;19947;-61
2022/03/23 13:45:47;;;;;;;;;;;;;;;23.49;31.14;100180.53;5040098;28;19917;-61
2022/03/23 13:48:12;;;;;;;;;;;;;;;23.38;30.61;100178.59;5040537;28;19921;-60
2022/03/23 13:50:44;;;;;;;;;;;;;;;24.07;28.58;100170.47;5040850;28;19917;-60
2022/03/23 13:53:12;;;;;;;;;;;;;;;25.10;28.85;100172.81;5037809;28;19928;-61
2022/03/23 13:55:37;;;;;;;;;;;;;;;23.79;28.02;100161.84;5039920;28;19936;-60
2022/03/23 13:58:02;;;;;;;;;;;;;;;24.72;31.13;100168.56;5023956;28;19920;-61
2022/03/23 14:00:28;;;;;;;;;;;;;;;24.26;29.55;100164.75;5041531;28;19931;-61
2022/03/23 14:02:54;;;;;;;;;;;;;;;24.99;28.66;100163.91;5042740;28;19917;-61
2022/03/23 14:05:19;;;;;;;;;;;;;;;24.56;29.21;100161.78;5040896;28;19912;-60
2022/03/23 14:07:45;;;;;;;;;;;;;;;24.23;30.59;100172.03;5039214;28;19920;-60
2022/03/23 14:10:10;;;;;;;;;;;;;;;24.65;31.87;100172.59;5038536;28;19920;-60
2022/03/23 14:12:36;;;;;;;;;;;;;;;22.49;30.75;100173.81;5038728;28;19927;-62
2022/03/23 14:15:01;;;;;;;;;;;;;;;23.17;31.54;100166.88;5021111;28;19928;-60
2022/03/23 14:17:28;;;;;;;;;;;;;;;21.99;31.68;100169.06;5043899;28;19916;-59
2022/03/23 14:19:58;;;;;;;;;;;;;;;22.79;31.69;100174.59;5042362;28;19916;-61
2022/03/23 14:22:25;;;;;;;;;;;;;;;22.08;30.91;100166.69;5040463;28;20327;-61
2022/03/23 14:24:51;;;;;;;;;;;;;;;23.84;31.74;100158.06;5039934;28;19925;-60
2022/03/23 14:27:22;;;;;;;;;;;;;;;22.94;31.73;100161.31;5039051;28;19921;-60
2022/03/23 14:29:56;;;;;;;;;;;;;;;23.05;32.83;100160.63;5042253;28;19913;-61
2022/03/23 14:32:28;;;;;;;;;;;;;;;22.36;33.07;100167.66;5040968;28;19912;-60
2022/03/23 14:34:54;;;;;;;;;;;;;;;22.70;32.42;100155.84;5041860;28;19917;-60
2022/03/23 14:37:19;;;;;;;;;;;;;;;22.50;31.92;100166.78;5040432;28;20417;-60
2022/03/23 14:39:45;;;;;;;;;;;;;;;21.47;31.84;100152.03;5043398;28;20263;-58
2022/03/23 14:42:11;;;;;;;;;;;;;;;21.76;31.09;100147.69;5041992;28;20011;-61
2022/03/23 14:44:40;;;;;;;;;;;;;;;23.77;32.62;100153.22;5058973;28;20003;-61
2022/03/23 14:47:09;;;;;;;;;;;;;;;23.25;32.26;100151.44;5048533;28;19928;-61
2022/03/23 14:49:43;;;;;;;;;;;;;;;22.43;32.83;100153.19;5045791;28;19917;-62
2022/03/23 14:52:12;;;;;;;;;;;;;;;21.67;34.32;100148.22;5053627;28;19974;-61
2022/03/23 14:54:39;;;;;;;;;;;;;;;21.49;32.33;100150.16;5055251;28;20026;-60
2022/03/23 14:57:08;;;;;;;;;;;;;;;22.10;31.93;100149.09;5036244;28;19921;-61
2022/03/23 14:59:42;;;;;;;;;;;;;;;22.87;31.12;100135.53;5055031;28;20333;-61
2022/03/23 15:02:08;;;;;;;;;;;;;;;22.28;30.71;100135.78;5037872;28;19963;-60
2022/03/23 15:04:33;;;;;;;;;;;;;;;22.61;32.29;100134.59;5058916;28;19971;-59
2022/03/23 15:15:10;;;;;;;;;;;;;;;20.54;34.46;100131.94;5056278;28;20023;-61
2022/03/23 15:17:36;;;;;;;;;;;;;;;20.78;33.78;100130.63;5053882;28;19932;-61
2022/03/23 15:20:01;;;;;;;;;;;;;;;21.40;33.73;100134.94;5053070;28;19916;-61
2022/03/23 15:22:27;;;;;;;;;;;;;;;22.07;33.96;100136.13;5036771;28;20382;-61
2022/03/23 15:24:52;;;;;;;;;;;;;;;21.39;30.98;100130.63;5054859;28;19923;-61
2022/03/23 15:27:18;;;;;;;;;;;;;;;21.60;33.08;100131.16;5052638;28;19967;-61
2022/03/23 15:29:43;;;;;;;;;;;;;;;22.13;33.68;100127.91;5057013;28;20089;-62
2022/03/23 15:32:09;;;;;;;;;;;;;;;21.21;31.27;100115.06;5050228;28;19927;-60
2022/03/23 15:34:39;;;;;;;;;;;;;;;21.70;31.23;100119.19;5049331;28;19916;-60
2022/03/23 15:37:04;;;;;;;;;;;;;;;22.47;32.90;100117.94;5055364;28;20432;-59
2022/03/23 15:39:31;;;;;;;;;;;;;;;21.20;33.01;100110.75;5052803;28;19925;-58
2022/03/23 15:41:57;;;;;;;;;;;;;;;21.65;33.07;100114.22;5054256;28;19920;-59
2022/03/23 15:44:22;;;;;;;;;;;;;;;21.23;31.38;100110.59;5053821;28;19931;-62
2022/03/23 15:46:49;;;;;;;;;;;;;;;22.77;31.61;100115.13;5032931;28;20221;-61
2022/03/23 15:49:16;;;;;;;;;;;;;;;21.95;31.50;100110.69;5053798;28;20360;-61
2022/03/23 15:51:41;;;;;;;;;;;;;;;21.94;33.01;100119.50;5056371;28;20184;-68
2022/03/23 15:54:07;;;;;;;;;;;;;;;21.18;33.73;100112.59;5055876;28;20892;-65
2022/03/23 15:56:32;;;;;;;;;;;;;;;21.65;31.91;100103.75;5055315;28;20461;-63
2022/03/23 15:58:57;;;;;;;;;;;;;;;21.48;31.31;100107.38;5056240;28;19920;-62
2022/03/23 16:01:23;;;;;;;;;;;;;;;21.55;33.68;100107.00;5056212;28;20325;-60
2022/03/23 16:03:48;;;;;;;;;;;;;;;21.52;34.44;100108.03;5051599;28;19964;-60
2022/03/23 16:06:15;;;;;;;;;;;;;;;20.81;32.71;100106.03;5055514;28;19971;-60
2022/03/23 16:08:41;;;;;;;;;;;;;;;21.90;32.02;100108.34;5055228;28;19920;-60
2022/03/23 16:11:07;;;;;;;;;;;;;;;20.45;33.05;100107.97;5015159;28;19921;-60
2022/03/23 16:13:33;;;;;;;;;;;;;;;21.77;33.73;100106.56;5053062;28;19917;-60
2022/03/23 16:15:58;;;;;;;;;;;;;;;21.88;32.56;100104.13;5036067;28;19919;-60
2022/03/23 16:18:23;;;;;;;;;;;;;;;22.39;32.93;100099.19;5054805;28;20008;-60
2022/03/23 16:20:49;;;;;;;;;;;;;;;22.11;32.27;100106.16;5052795;28;19921;-60
2022/03/23 16:23:14;;;;;;;;;;;;;;;21.43;33.23;100104.19;5054024;28;19927;-60
2022/03/23 16:25:39;;;;;;;;;;;;;;;22.64;32.08;100097.63;5056910;28;19956;-60
2022/03/23 16:28:05;;;;;;;;;;;;;;;21.42;32.09;100107.75;5036243;28;20370;-61